sensor_id;sensor_type;location;lat;lon;timestamp;P1;durP1;ratioP1;P2;durP2;ratioP2
5257;SDS011;2651;51.594;9.928;2022-12-18T00:00:29;26.55;;;18.25;;
5257;SDS011;2651;51.594;9.928;2022-12-18T00:01:32;23.38;;;17.95;;
5257;SDS011;2651;51.594;9.928;2022-12-18T00:02:36;22.67;;;17.50;;
5257;SDS011;2651;51.594;9.928;2022-12-18T00:03:38;25.33;;;18.20;;
5257;SDS011;2651;51.594;9.928;2022-12-18T00:04:41;25.30;;;17.65;;
5257;SDS011;2651;51.594;9.928;2022-12-18T00:05:49;24.15;;;17.48;;
5257;SDS011;2651;51.594;9.928;2022-12-18T00:06:52;24.48;;;18.27;;
5257;SDS011;2651;51.594;9.928;2022-12-18T00:07:54;25.30;;;17.95;;
5257;SDS011;2651;51.594;9.928;2022-12-18T00:08:56;32.50;;;18.77;;
5257;SDS011;2651;51.594;9.928;2022-12-18T00:09:58;29.52;;;19.15;;
5257;SDS011;2651;51.594;9.928;2022-12-18T00:11:04;28.05;;;19.08;;
5257;SDS011;2651;51.594;9.928;2022-12-18T00:12:07;25.95;;;18.65;;
5257;SDS011;2651;51.594;9.928;2022-12-18T00:13:15;28.83;;;18.63;;
5257;SDS011;2651;51.594;9.928;2022-12-18T00:14:17;34.53;;;21.33;;
5257;SDS011;2651;51.594;9.928;2022-12-18T00:15:19;30.85;;;21.45;;
5257;SDS011;2651;51.594;9.928;2022-12-18T00:16:22;29.83;;;20.20;;
5257;SDS011;2651;51.594;9.928;2022-12-18T00:17:26;32.50;;;19.95;;
5257;SDS011;2651;51.594;9.928;2022-12-18T00:18:27;31.15;;;21.40;;
5257;SDS011;2651;51.594;9.928;2022-12-18T00:19:29;34.15;;;21.45;;
5257;SDS011;2651;51.594;9.928;2022-12-18T00:20:35;34.17;;;22.08;;
5257;SDS011;2651;51.594;9.928;2022-12-18T00:21:38;37.50;;;22.10;;
5257;SDS011;2651;51.594;9.928;2022-12-18T00:22:40;40.72;;;23.27;;
5257;SDS011;2651;51.594;9.928;2022-12-18T00:23:42;40.53;;;23.80;;
5257;SDS011;2651;51.594;9.928;2022-12-18T00:24:45;37.85;;;22.90;;
5257;SDS011;2651;51.594;9.928;2022-12-18T00:25:47;33.88;;;22.35;;
5257;SDS011;2651;51.594;9.928;2022-12-18T00:26:49;41.28;;;23.08;;
5257;SDS011;2651;51.594;9.928;2022-12-18T00:27:50;38.42;;;22.92;;
5257;SDS011;2651;51.594;9.928;2022-12-18T00:28:52;33.22;;;21.17;;
5257;SDS011;2651;51.594;9.928;2022-12-18T00:29:56;34.38;;;22.00;;
5257;SDS011;2651;51.594;9.928;2022-12-18T00:32:03;33.38;;;21.00;;
5257;SDS011;2651;51.594;9.928;2022-12-18T00:33:04;34.22;;;21.38;;
5257;SDS011;2651;51.594;9.928;2022-12-18T00:34:06;31.08;;;20.85;;
5257;SDS011;2651;51.594;9.928;2022-12-18T00:35:10;30.15;;;20.25;;
5257;SDS011;2651;51.594;9.928;2022-12-18T00:36:13;30.42;;;19.67;;
5257;SDS011;2651;51.594;9.928;2022-12-18T00:37:17;32.40;;;20.95;;
5257;SDS011;2651;51.594;9.928;2022-12-18T00:38:20;24.92;;;18.10;;
5257;SDS011;2651;51.594;9.928;2022-12-18T00:39:22;27.38;;;18.50;;
5257;SDS011;2651;51.594;9.928;2022-12-18T00:40:24;24.08;;;17.75;;
5257;SDS011;2651;51.594;9.928;2022-12-18T00:41:26;27.83;;;18.05;;
5257;SDS011;2651;51.594;9.928;2022-12-18T00:42:47;27.67;;;18.40;;
5257;SDS011;2651;51.594;9.928;2022-12-18T00:43:57;27.15;;;18.90;;
5257;SDS011;2651;51.594;9.928;2022-12-18T00:44:59;26.77;;;17.67;;
5257;SDS011;2651;51.594;9.928;2022-12-18T00:46:01;24.35;;;17.02;;
5257;SDS011;2651;51.594;9.928;2022-12-18T00:47:03;24.85;;;18.10;;
5257;SDS011;2651;51.594;9.928;2022-12-18T00:48:04;26.83;;;18.00;;
5257;SDS011;2651;51.594;9.928;2022-12-18T00:49:06;26.00;;;17.38;;
5257;SDS011;2651;51.594;9.928;2022-12-18T00:50:09;24.83;;;16.75;;
5257;SDS011;2651;51.594;9.928;2022-12-18T00:51:11;27.95;;;17.77;;
5257;SDS011;2651;51.594;9.928;2022-12-18T00:52:12;26.08;;;16.63;;
5257;SDS011;2651;51.594;9.928;2022-12-18T00:53:14;25.25;;;17.15;;
5257;SDS011;2651;51.594;9.928;2022-12-18T00:54:16;20.40;;;15.18;;
5257;SDS011;2651;51.594;9.928;2022-12-18T00:55:18;22.38;;;16.38;;
5257;SDS011;2651;51.594;9.928;2022-12-18T00:56:20;22.55;;;16.85;;
5257;SDS011;2651;51.594;9.928;2022-12-18T00:57:22;22.17;;;16.75;;
5257;SDS011;2651;51.594;9.928;2022-12-18T00:58:23;23.92;;;16.23;;
5257;SDS011;2651;51.594;9.928;2022-12-18T00:59:25;21.38;;;16.33;;
5257;SDS011;2651;51.594;9.928;2022-12-18T01:00:26;22.02;;;16.20;;
5257;SDS011;2651;51.594;9.928;2022-12-18T01:01:28;24.55;;;17.90;;
5257;SDS011;2651;51.594;9.928;2022-12-18T01:02:30;27.48;;;19.20;;
5257;SDS011;2651;51.594;9.928;2022-12-18T01:03:32;28.63;;;18.20;;
5257;SDS011;2651;51.594;9.928;2022-12-18T01:04:34;23.77;;;15.82;;
5257;SDS011;2651;51.594;9.928;2022-12-18T01:05:38;21.70;;;15.40;;
5257;SDS011;2651;51.594;9.928;2022-12-18T01:06:41;24.48;;;16.27;;
5257;SDS011;2651;51.594;9.928;2022-12-18T01:07:43;20.67;;;14.48;;
5257;SDS011;2651;51.594;9.928;2022-12-18T01:08:44;20.52;;;15.60;;
5257;SDS011;2651;51.594;9.928;2022-12-18T01:09:46;21.13;;;15.85;;
5257;SDS011;2651;51.594;9.928;2022-12-18T01:10:48;28.02;;;16.55;;
5257;SDS011;2651;51.594;9.928;2022-12-18T01:11:49;21.88;;;16.20;;
5257;SDS011;2651;51.594;9.928;2022-12-18T01:12:51;23.45;;;16.02;;
5257;SDS011;2651;51.594;9.928;2022-12-18T01:13:53;22.23;;;15.85;;
5257;SDS011;2651;51.594;9.928;2022-12-18T01:14:55;21.45;;;14.98;;
5257;SDS011;2651;51.594;9.928;2022-12-18T01:15:57;23.13;;;15.90;;
5257;SDS011;2651;51.594;9.928;2022-12-18T01:16:59;24.67;;;18.40;;
5257;SDS011;2651;51.594;9.928;2022-12-18T01:18:03;25.00;;;17.60;;
5257;SDS011;2651;51.594;9.928;2022-12-18T01:19:05;26.75;;;18.63;;
5257;SDS011;2651;51.594;9.928;2022-12-18T01:20:07;29.38;;;19.48;;
5257;SDS011;2651;51.594;9.928;2022-12-18T01:21:11;27.15;;;18.77;;
5257;SDS011;2651;51.594;9.928;2022-12-18T01:22:15;30.25;;;19.45;;
5257;SDS011;2651;51.594;9.928;2022-12-18T01:23:17;25.75;;;19.38;;
5257;SDS011;2651;51.594;9.928;2022-12-18T01:24:18;25.88;;;18.50;;
5257;SDS011;2651;51.594;9.928;2022-12-18T01:25:20;28.35;;;18.98;;
5257;SDS011;2651;51.594;9.928;2022-12-18T01:26:22;29.65;;;19.77;;
5257;SDS011;2651;51.594;9.928;2022-12-18T01:27:26;26.50;;;19.10;;
5257;SDS011;2651;51.594;9.928;2022-12-18T01:28:28;26.17;;;18.40;;
5257;SDS011;2651;51.594;9.928;2022-12-18T01:29:30;27.95;;;18.77;;
5257;SDS011;2651;51.594;9.928;2022-12-18T01:30:31;24.98;;;18.90;;
5257;SDS011;2651;51.594;9.928;2022-12-18T01:31:33;24.17;;;17.40;;
5257;SDS011;2651;51.594;9.928;2022-12-18T01:32:35;25.77;;;17.73;;
5257;SDS011;2651;51.594;9.928;2022-12-18T01:33:36;24.15;;;17.08;;
5257;SDS011;2651;51.594;9.928;2022-12-18T01:34:39;23.83;;;17.75;;
5257;SDS011;2651;51.594;9.928;2022-12-18T01:35:41;22.55;;;16.75;;
5257;SDS011;2651;51.594;9.928;2022-12-18T01:36:43;25.65;;;16.73;;
5257;SDS011;2651;51.594;9.928;2022-12-18T01:37:45;27.92;;;16.88;;
5257;SDS011;2651;51.594;9.928;2022-12-18T01:38:47;24.27;;;17.80;;
5257;SDS011;2651;51.594;9.928;2022-12-18T01:39:49;28.25;;;17.50;;
5257;SDS011;2651;51.594;9.928;2022-12-18T01:40:57;21.55;;;16.00;;
5257;SDS011;2651;51.594;9.928;2022-12-18T01:42:02;19.75;;;15.48;;
5257;SDS011;2651;51.594;9.928;2022-12-18T01:43:04;24.10;;;17.45;;
5257;SDS011;2651;51.594;9.928;2022-12-18T01:44:46;25.60;;;18.08;;
5257;SDS011;2651;51.594;9.928;2022-12-18T01:45:45;24.40;;;16.52;;
5257;SDS011;2651;51.594;9.928;2022-12-18T01:46:47;24.65;;;17.55;;
5257;SDS011;2651;51.594;9.928;2022-12-18T01:48:02;26.63;;;17.08;;
5257;SDS011;2651;51.594;9.928;2022-12-18T01:49:07;27.15;;;18.35;;
5257;SDS011;2651;51.594;9.928;2022-12-18T01:50:25;25.08;;;16.98;;
5257;SDS011;2651;51.594;9.928;2022-12-18T01:51:35;26.10;;;17.30;;
5257;SDS011;2651;51.594;9.928;2022-12-18T01:52:37;32.08;;;19.55;;
5257;SDS011;2651;51.594;9.928;2022-12-18T01:53:40;32.83;;;21.75;;
5257;SDS011;2651;51.594;9.928;2022-12-18T01:54:43;28.98;;;19.63;;
5257;SDS011;2651;51.594;9.928;2022-12-18T01:56:49;30.67;;;20.00;;
5257;SDS011;2651;51.594;9.928;2022-12-18T01:57:54;28.73;;;18.05;;
5257;SDS011;2651;51.594;9.928;2022-12-18T01:58:59;28.17;;;18.52;;
5257;SDS011;2651;51.594;9.928;2022-12-18T02:00:05;24.08;;;17.23;;
5257;SDS011;2651;51.594;9.928;2022-12-18T02:01:12;25.25;;;17.13;;
5257;SDS011;2651;51.594;9.928;2022-12-18T02:02:15;24.05;;;17.08;;
5257;SDS011;2651;51.594;9.928;2022-12-18T02:03:19;21.75;;;16.25;;
5257;SDS011;2651;51.594;9.928;2022-12-18T02:04:24;28.40;;;17.65;;
5257;SDS011;2651;51.594;9.928;2022-12-18T02:05:39;27.50;;;18.00;;
5257;SDS011;2651;51.594;9.928;2022-12-18T02:06:44;22.33;;;16.45;;
5257;SDS011;2651;51.594;9.928;2022-12-18T02:08:58;21.10;;;15.75;;
5257;SDS011;2651;51.594;9.928;2022-12-18T02:10:18;20.45;;;15.38;;
5257;SDS011;2651;51.594;9.928;2022-12-18T02:11:32;22.40;;;15.60;;
5257;SDS011;2651;51.594;9.928;2022-12-18T02:15:53;21.08;;;14.13;;
5257;SDS011;2651;51.594;9.928;2022-12-18T02:17:10;22.15;;;15.02;;
5257;SDS011;2651;51.594;9.928;2022-12-18T02:18:18;23.15;;;15.00;;
5257;SDS011;2651;51.594;9.928;2022-12-18T02:19:31;22.48;;;16.08;;
5257;SDS011;2651;51.594;9.928;2022-12-18T02:20:52;24.63;;;15.88;;
5257;SDS011;2651;51.594;9.928;2022-12-18T02:24:51;21.77;;;15.45;;
5257;SDS011;2651;51.594;9.928;2022-12-18T02:27:05;21.40;;;14.57;;
5257;SDS011;2651;51.594;9.928;2022-12-18T02:28:12;23.67;;;15.43;;
5257;SDS011;2651;51.594;9.928;2022-12-18T02:29:28;23.17;;;16.13;;
5257;SDS011;2651;51.594;9.928;2022-12-18T02:30:58;24.02;;;15.57;;
5257;SDS011;2651;51.594;9.928;2022-12-18T02:32:03;23.35;;;15.75;;
5257;SDS011;2651;51.594;9.928;2022-12-18T02:33:17;21.17;;;14.95;;
5257;SDS011;2651;51.594;9.928;2022-12-18T02:34:25;19.73;;;15.18;;
5257;SDS011;2651;51.594;9.928;2022-12-18T02:35:29;21.98;;;15.25;;
5257;SDS011;2651;51.594;9.928;2022-12-18T02:36:32;24.73;;;16.05;;
5257;SDS011;2651;51.594;9.928;2022-12-18T02:37:36;20.92;;;15.15;;
5257;SDS011;2651;51.594;9.928;2022-12-18T02:38:41;25.02;;;16.55;;
5257;SDS011;2651;51.594;9.928;2022-12-18T02:39:46;24.10;;;15.25;;
5257;SDS011;2651;51.594;9.928;2022-12-18T02:40:50;20.98;;;15.30;;
5257;SDS011;2651;51.594;9.928;2022-12-18T02:41:54;22.48;;;15.90;;
5257;SDS011;2651;51.594;9.928;2022-12-18T02:43:07;24.55;;;17.52;;
5257;SDS011;2651;51.594;9.928;2022-12-18T02:44:11;23.88;;;14.88;;
5257;SDS011;2651;51.594;9.928;2022-12-18T02:45:14;19.58;;;15.63;;
5257;SDS011;2651;51.594;9.928;2022-12-18T02:46:29;24.08;;;16.17;;
5257;SDS011;2651;51.594;9.928;2022-12-18T02:47:39;22.67;;;15.30;;
5257;SDS011;2651;51.594;9.928;2022-12-18T02:48:44;22.65;;;15.65;;
5257;SDS011;2651;51.594;9.928;2022-12-18T02:50:02;22.20;;;15.80;;
5257;SDS011;2651;51.594;9.928;2022-12-18T02:51:16;21.50;;;15.55;;
5257;SDS011;2651;51.594;9.928;2022-12-18T02:54:03;20.83;;;14.07;;
5257;SDS011;2651;51.594;9.928;2022-12-18T02:56:54;26.75;;;16.42;;
5257;SDS011;2651;51.594;9.928;2022-12-18T02:59:19;23.60;;;15.65;;
5257;SDS011;2651;51.594;9.928;2022-12-18T03:00:31;20.42;;;14.80;;
5257;SDS011;2651;51.594;9.928;2022-12-18T03:03:02;22.92;;;16.08;;
5257;SDS011;2651;51.594;9.928;2022-12-18T03:04:28;29.23;;;15.68;;
5257;SDS011;2651;51.594;9.928;2022-12-18T03:05:40;20.73;;;15.10;;
5257;SDS011;2651;51.594;9.928;2022-12-18T03:06:47;20.92;;;15.10;;
5257;SDS011;2651;51.594;9.928;2022-12-18T03:07:56;20.73;;;15.73;;
5257;SDS011;2651;51.594;9.928;2022-12-18T03:09:06;27.88;;;17.33;;
5257;SDS011;2651;51.594;9.928;2022-12-18T03:10:12;27.77;;;17.00;;
5257;SDS011;2651;51.594;9.928;2022-12-18T03:11:17;25.30;;;17.42;;
5257;SDS011;2651;51.594;9.928;2022-12-18T03:12:43;21.63;;;15.00;;
5257;SDS011;2651;51.594;9.928;2022-12-18T03:13:54;22.48;;;14.48;;
5257;SDS011;2651;51.594;9.928;2022-12-18T03:15:02;22.02;;;14.05;;
5257;SDS011;2651;51.594;9.928;2022-12-18T03:16:05;19.17;;;14.45;;
5257;SDS011;2651;51.594;9.928;2022-12-18T03:17:10;19.45;;;13.02;;
5257;SDS011;2651;51.594;9.928;2022-12-18T03:18:18;18.25;;;14.40;;
5257;SDS011;2651;51.594;9.928;2022-12-18T03:19:27;22.52;;;14.70;;
5257;SDS011;2651;51.594;9.928;2022-12-18T03:20:31;20.58;;;14.30;;
5257;SDS011;2651;51.594;9.928;2022-12-18T03:21:56;22.70;;;14.95;;
5257;SDS011;2651;51.594;9.928;2022-12-18T03:23:07;21.70;;;14.73;;
5257;SDS011;2651;51.594;9.928;2022-12-18T03:24:14;21.67;;;15.25;;
5257;SDS011;2651;51.594;9.928;2022-12-18T03:25:17;21.10;;;15.07;;
5257;SDS011;2651;51.594;9.928;2022-12-18T03:26:21;19.77;;;14.52;;
5257;SDS011;2651;51.594;9.928;2022-12-18T03:27:25;20.23;;;14.70;;
5257;SDS011;2651;51.594;9.928;2022-12-18T03:28:30;22.20;;;14.98;;
5257;SDS011;2651;51.594;9.928;2022-12-18T03:29:42;18.70;;;14.85;;
5257;SDS011;2651;51.594;9.928;2022-12-18T03:30:52;22.55;;;13.82;;
5257;SDS011;2651;51.594;9.928;2022-12-18T03:32:05;22.20;;;14.13;;
5257;SDS011;2651;51.594;9.928;2022-12-18T03:33:12;16.42;;;12.48;;
5257;SDS011;2651;51.594;9.928;2022-12-18T03:34:26;16.80;;;12.10;;
5257;SDS011;2651;51.594;9.928;2022-12-18T03:35:33;16.05;;;11.60;;
5257;SDS011;2651;51.594;9.928;2022-12-18T03:36:38;17.27;;;12.40;;
5257;SDS011;2651;51.594;9.928;2022-12-18T03:37:40;23.00;;;13.20;;
5257;SDS011;2651;51.594;9.928;2022-12-18T03:38:42;19.67;;;12.40;;
5257;SDS011;2651;51.594;9.928;2022-12-18T03:39:43;17.52;;;13.25;;
5257;SDS011;2651;51.594;9.928;2022-12-18T03:42:21;22.35;;;13.35;;
5257;SDS011;2651;51.594;9.928;2022-12-18T03:44:52;17.85;;;12.32;;
5257;SDS011;2651;51.594;9.928;2022-12-18T03:46:05;17.52;;;12.35;;
5257;SDS011;2651;51.594;9.928;2022-12-18T04:32:19;18.67;;;13.13;;
5257;SDS011;2651;51.594;9.928;2022-12-18T04:33:21;18.95;;;13.40;;
5257;SDS011;2651;51.594;9.928;2022-12-18T04:34:23;17.45;;;14.05;;
5257;SDS011;2651;51.594;9.928;2022-12-18T04:35:25;18.50;;;13.77;;
5257;SDS011;2651;51.594;9.928;2022-12-18T04:36:26;18.70;;;13.32;;
5257;SDS011;2651;51.594;9.928;2022-12-18T04:37:28;18.70;;;12.75;;
5257;SDS011;2651;51.594;9.928;2022-12-18T04:38:30;20.33;;;13.60;;
5257;SDS011;2651;51.594;9.928;2022-12-18T04:39:31;20.42;;;14.85;;
5257;SDS011;2651;51.594;9.928;2022-12-18T04:40:33;19.42;;;13.77;;
5257;SDS011;2651;51.594;9.928;2022-12-18T04:41:35;18.85;;;13.38;;
5257;SDS011;2651;51.594;9.928;2022-12-18T04:42:37;18.40;;;13.95;;
5257;SDS011;2651;51.594;9.928;2022-12-18T04:43:40;18.65;;;13.27;;
5257;SDS011;2651;51.594;9.928;2022-12-18T04:44:42;18.73;;;13.13;;
5257;SDS011;2651;51.594;9.928;2022-12-18T04:45:44;18.30;;;13.35;;
5257;SDS011;2651;51.594;9.928;2022-12-18T04:46:46;17.38;;;13.48;;
5257;SDS011;2651;51.594;9.928;2022-12-18T04:47:47;18.17;;;13.02;;
5257;SDS011;2651;51.594;9.928;2022-12-18T04:48:49;18.70;;;13.45;;
5257;SDS011;2651;51.594;9.928;2022-12-18T04:49:51;15.77;;;12.30;;
5257;SDS011;2651;51.594;9.928;2022-12-18T04:50:52;16.25;;;13.18;;
5257;SDS011;2651;51.594;9.928;2022-12-18T04:51:54;16.35;;;12.43;;
5257;SDS011;2651;51.594;9.928;2022-12-18T04:52:56;18.00;;;13.57;;
5257;SDS011;2651;51.594;9.928;2022-12-18T04:53:58;19.55;;;12.90;;
5257;SDS011;2651;51.594;9.928;2022-12-18T04:54:59;18.60;;;13.55;;
5257;SDS011;2651;51.594;9.928;2022-12-18T04:56:08;18.27;;;13.68;;
5257;SDS011;2651;51.594;9.928;2022-12-18T04:57:11;17.17;;;12.63;;
5257;SDS011;2651;51.594;9.928;2022-12-18T04:58:13;16.60;;;12.98;;
5257;SDS011;2651;51.594;9.928;2022-12-18T04:59:15;17.88;;;13.18;;
5257;SDS011;2651;51.594;9.928;2022-12-18T05:00:16;19.35;;;13.60;;
5257;SDS011;2651;51.594;9.928;2022-12-18T05:01:18;16.20;;;12.85;;
5257;SDS011;2651;51.594;9.928;2022-12-18T05:02:20;18.00;;;11.70;;
5257;SDS011;2651;51.594;9.928;2022-12-18T05:03:22;18.10;;;13.25;;
5257;SDS011;2651;51.594;9.928;2022-12-18T05:04:24;18.05;;;13.70;;
5257;SDS011;2651;51.594;9.928;2022-12-18T05:05:25;16.90;;;13.02;;
5257;SDS011;2651;51.594;9.928;2022-12-18T05:06:27;19.77;;;13.68;;
5257;SDS011;2651;51.594;9.928;2022-12-18T05:07:29;18.73;;;13.25;;
5257;SDS011;2651;51.594;9.928;2022-12-18T05:08:31;22.10;;;13.98;;
5257;SDS011;2651;51.594;9.928;2022-12-18T05:09:32;19.02;;;12.90;;
5257;SDS011;2651;51.594;9.928;2022-12-18T05:10:34;20.60;;;14.10;;
5257;SDS011;2651;51.594;9.928;2022-12-18T05:11:38;19.38;;;14.27;;
5257;SDS011;2651;51.594;9.928;2022-12-18T05:12:40;17.08;;;12.80;;
5257;SDS011;2651;51.594;9.928;2022-12-18T05:14:01;15.43;;;11.95;;
5257;SDS011;2651;51.594;9.928;2022-12-18T05:15:02;17.00;;;12.60;;
5257;SDS011;2651;51.594;9.928;2022-12-18T05:16:05;16.45;;;12.68;;
5257;SDS011;2651;51.594;9.928;2022-12-18T05:17:07;19.30;;;13.30;;
5257;SDS011;2651;51.594;9.928;2022-12-18T05:18:08;17.30;;;12.50;;
5257;SDS011;2651;51.594;9.928;2022-12-18T05:19:10;18.83;;;14.15;;
5257;SDS011;2651;51.594;9.928;2022-12-18T05:20:13;14.68;;;12.00;;
5257;SDS011;2651;51.594;9.928;2022-12-18T05:21:14;17.58;;;12.23;;
5257;SDS011;2651;51.594;9.928;2022-12-18T05:22:16;20.20;;;14.07;;
5257;SDS011;2651;51.594;9.928;2022-12-18T05:23:18;19.08;;;13.65;;
5257;SDS011;2651;51.594;9.928;2022-12-18T05:24:20;17.88;;;13.80;;
5257;SDS011;2651;51.594;9.928;2022-12-18T05:25:22;17.40;;;12.80;;
5257;SDS011;2651;51.594;9.928;2022-12-18T05:26:24;18.13;;;13.45;;
5257;SDS011;2651;51.594;9.928;2022-12-18T05:27:26;17.27;;;12.63;;
5257;SDS011;2651;51.594;9.928;2022-12-18T05:28:28;16.20;;;12.30;;
5257;SDS011;2651;51.594;9.928;2022-12-18T05:29:31;19.85;;;12.63;;
5257;SDS011;2651;51.594;9.928;2022-12-18T05:30:33;16.85;;;11.80;;
5257;SDS011;2651;51.594;9.928;2022-12-18T05:31:35;13.55;;;10.95;;
5257;SDS011;2651;51.594;9.928;2022-12-18T05:32:40;17.45;;;11.65;;
5257;SDS011;2651;51.594;9.928;2022-12-18T05:33:42;15.85;;;11.35;;
5257;SDS011;2651;51.594;9.928;2022-12-18T05:34:44;16.27;;;11.65;;
5257;SDS011;2651;51.594;9.928;2022-12-18T05:35:52;14.90;;;11.80;;
5257;SDS011;2651;51.594;9.928;2022-12-18T05:37:04;16.70;;;12.02;;
5257;SDS011;2651;51.594;9.928;2022-12-18T05:38:06;13.23;;;10.50;;
5257;SDS011;2651;51.594;9.928;2022-12-18T05:39:08;14.52;;;11.27;;
5257;SDS011;2651;51.594;9.928;2022-12-18T05:40:10;14.10;;;11.10;;
5257;SDS011;2651;51.594;9.928;2022-12-18T05:41:12;16.30;;;11.30;;
5257;SDS011;2651;51.594;9.928;2022-12-18T05:42:14;16.95;;;12.02;;
5257;SDS011;2651;51.594;9.928;2022-12-18T05:43:16;19.20;;;13.05;;
5257;SDS011;2651;51.594;9.928;2022-12-18T05:44:21;21.45;;;13.75;;
5257;SDS011;2651;51.594;9.928;2022-12-18T05:45:23;18.45;;;12.18;;
5257;SDS011;2651;51.594;9.928;2022-12-18T05:46:24;15.70;;;12.35;;
5257;SDS011;2651;51.594;9.928;2022-12-18T05:47:27;16.23;;;11.88;;
5257;SDS011;2651;51.594;9.928;2022-12-18T05:48:29;21.27;;;12.15;;
5257;SDS011;2651;51.594;9.928;2022-12-18T05:49:31;16.20;;;12.35;;
5257;SDS011;2651;51.594;9.928;2022-12-18T05:50:36;15.07;;;12.40;;
5257;SDS011;2651;51.594;9.928;2022-12-18T05:51:39;15.23;;;11.40;;
5257;SDS011;2651;51.594;9.928;2022-12-18T05:52:41;16.63;;;11.07;;
5257;SDS011;2651;51.594;9.928;2022-12-18T05:53:43;15.98;;;11.95;;
5257;SDS011;2651;51.594;9.928;2022-12-18T05:54:45;17.58;;;11.48;;
5257;SDS011;2651;51.594;9.928;2022-12-18T05:55:47;15.05;;;12.00;;
5257;SDS011;2651;51.594;9.928;2022-12-18T05:56:49;17.17;;;11.98;;
5257;SDS011;2651;51.594;9.928;2022-12-18T05:57:50;18.00;;;12.13;;
5257;SDS011;2651;51.594;9.928;2022-12-18T05:58:52;17.60;;;11.63;;
5257;SDS011;2651;51.594;9.928;2022-12-18T05:59:54;17.90;;;11.88;;
5257;SDS011;2651;51.594;9.928;2022-12-18T06:00:56;18.25;;;12.57;;
5257;SDS011;2651;51.594;9.928;2022-12-18T06:01:58;17.02;;;13.20;;
5257;SDS011;2651;51.594;9.928;2022-12-18T06:03:00;17.38;;;12.50;;
5257;SDS011;2651;51.594;9.928;2022-12-18T06:04:02;16.45;;;12.55;;
5257;SDS011;2651;51.594;9.928;2022-12-18T06:05:05;15.85;;;11.63;;
5257;SDS011;2651;51.594;9.928;2022-12-18T06:06:17;17.13;;;12.98;;
5257;SDS011;2651;51.594;9.928;2022-12-18T06:07:26;17.00;;;11.88;;
5257;SDS011;2651;51.594;9.928;2022-12-18T06:08:28;17.02;;;12.23;;
5257;SDS011;2651;51.594;9.928;2022-12-18T06:09:29;18.85;;;13.07;;
5257;SDS011;2651;51.594;9.928;2022-12-18T06:10:31;17.60;;;12.80;;
5257;SDS011;2651;51.594;9.928;2022-12-18T06:11:33;19.95;;;11.98;;
5257;SDS011;2651;51.594;9.928;2022-12-18T06:12:37;17.30;;;11.68;;
5257;SDS011;2651;51.594;9.928;2022-12-18T06:13:38;17.33;;;11.50;;
5257;SDS011;2651;51.594;9.928;2022-12-18T06:14:41;17.05;;;12.60;;
5257;SDS011;2651;51.594;9.928;2022-12-18T06:15:42;16.90;;;12.63;;
5257;SDS011;2651;51.594;9.928;2022-12-18T06:16:44;18.98;;;13.05;;
5257;SDS011;2651;51.594;9.928;2022-12-18T06:17:46;16.48;;;12.95;;
5257;SDS011;2651;51.594;9.928;2022-12-18T06:18:47;18.67;;;13.50;;
5257;SDS011;2651;51.594;9.928;2022-12-18T06:19:49;16.48;;;11.98;;
5257;SDS011;2651;51.594;9.928;2022-12-18T06:20:54;16.15;;;11.80;;
5257;SDS011;2651;51.594;9.928;2022-12-18T06:21:57;15.50;;;12.15;;
5257;SDS011;2651;51.594;9.928;2022-12-18T06:23:00;16.42;;;11.68;;
5257;SDS011;2651;51.594;9.928;2022-12-18T06:24:01;15.55;;;12.38;;
5257;SDS011;2651;51.594;9.928;2022-12-18T06:25:03;15.60;;;11.80;;
5257;SDS011;2651;51.594;9.928;2022-12-18T06:26:07;15.70;;;11.90;;
5257;SDS011;2651;51.594;9.928;2022-12-18T06:27:10;19.20;;;13.07;;
5257;SDS011;2651;51.594;9.928;2022-12-18T06:28:12;15.95;;;11.95;;
5257;SDS011;2651;51.594;9.928;2022-12-18T06:29:14;15.75;;;12.10;;
5257;SDS011;2651;51.594;9.928;2022-12-18T06:30:15;15.88;;;11.63;;
5257;SDS011;2651;51.594;9.928;2022-12-18T06:31:17;17.92;;;11.93;;
5257;SDS011;2651;51.594;9.928;2022-12-18T06:32:19;18.42;;;12.77;;
5257;SDS011;2651;51.594;9.928;2022-12-18T06:33:20;14.88;;;12.20;;
5257;SDS011;2651;51.594;9.928;2022-12-18T06:34:22;19.67;;;12.52;;
5257;SDS011;2651;51.594;9.928;2022-12-18T06:35:24;12.40;;;10.70;;
5257;SDS011;2651;51.594;9.928;2022-12-18T06:36:25;15.02;;;11.40;;
5257;SDS011;2651;51.594;9.928;2022-12-18T06:37:27;15.05;;;11.45;;
5257;SDS011;2651;51.594;9.928;2022-12-18T06:38:29;15.82;;;11.15;;
5257;SDS011;2651;51.594;9.928;2022-12-18T06:39:32;16.55;;;12.00;;
5257;SDS011;2651;51.594;9.928;2022-12-18T06:40:34;14.40;;;11.20;;
5257;SDS011;2651;51.594;9.928;2022-12-18T06:41:38;17.05;;;11.80;;
5257;SDS011;2651;51.594;9.928;2022-12-18T06:42:40;18.38;;;11.90;;
5257;SDS011;2651;51.594;9.928;2022-12-18T06:43:42;14.30;;;10.70;;
5257;SDS011;2651;51.594;9.928;2022-12-18T06:44:44;18.13;;;12.15;;
5257;SDS011;2651;51.594;9.928;2022-12-18T06:45:46;19.02;;;12.20;;
5257;SDS011;2651;51.594;9.928;2022-12-18T06:46:53;19.80;;;12.52;;
5257;SDS011;2651;51.594;9.928;2022-12-18T06:47:55;17.40;;;12.20;;
5257;SDS011;2651;51.594;9.928;2022-12-18T06:48:57;20.13;;;12.63;;
5257;SDS011;2651;51.594;9.928;2022-12-18T06:49:59;18.88;;;13.68;;
5257;SDS011;2651;51.594;9.928;2022-12-18T06:51:00;16.27;;;11.95;;
5257;SDS011;2651;51.594;9.928;2022-12-18T06:52:02;14.93;;;11.90;;
5257;SDS011;2651;51.594;9.928;2022-12-18T06:53:04;17.60;;;12.27;;
5257;SDS011;2651;51.594;9.928;2022-12-18T06:54:07;18.40;;;12.85;;
5257;SDS011;2651;51.594;9.928;2022-12-18T06:55:09;19.42;;;13.45;;
5257;SDS011;2651;51.594;9.928;2022-12-18T06:56:12;16.60;;;12.52;;
5257;SDS011;2651;51.594;9.928;2022-12-18T06:57:13;17.17;;;12.30;;
5257;SDS011;2651;51.594;9.928;2022-12-18T06:58:15;17.30;;;12.80;;
5257;SDS011;2651;51.594;9.928;2022-12-18T06:59:17;17.80;;;12.60;;
5257;SDS011;2651;51.594;9.928;2022-12-18T07:00:18;17.77;;;12.00;;
5257;SDS011;2651;51.594;9.928;2022-12-18T07:01:20;19.80;;;13.30;;
5257;SDS011;2651;51.594;9.928;2022-12-18T07:02:23;21.20;;;12.98;;
5257;SDS011;2651;51.594;9.928;2022-12-18T07:03:24;18.25;;;12.38;;
5257;SDS011;2651;51.594;9.928;2022-12-18T07:04:29;16.55;;;12.07;;
5257;SDS011;2651;51.594;9.928;2022-12-18T07:05:31;18.88;;;12.85;;
5257;SDS011;2651;51.594;9.928;2022-12-18T07:06:32;18.10;;;11.57;;
5257;SDS011;2651;51.594;9.928;2022-12-18T07:07:34;16.08;;;12.10;;
5257;SDS011;2651;51.594;9.928;2022-12-18T07:08:36;17.77;;;11.35;;
5257;SDS011;2651;51.594;9.928;2022-12-18T07:09:38;16.02;;;12.18;;
5257;SDS011;2651;51.594;9.928;2022-12-18T07:10:43;18.30;;;12.63;;
5257;SDS011;2651;51.594;9.928;2022-12-18T07:11:49;15.80;;;11.85;;
5257;SDS011;2651;51.594;9.928;2022-12-18T07:12:51;16.85;;;10.90;;
5257;SDS011;2651;51.594;9.928;2022-12-18T07:13:53;15.20;;;11.50;;
5257;SDS011;2651;51.594;9.928;2022-12-18T07:14:55;16.40;;;11.90;;
5257;SDS011;2651;51.594;9.928;2022-12-18T07:16:03;19.95;;;11.63;;
5257;SDS011;2651;51.594;9.928;2022-12-18T07:17:18;22.60;;;11.43;;
5257;SDS011;2651;51.594;9.928;2022-12-18T07:18:20;17.27;;;11.55;;
5257;SDS011;2651;51.594;9.928;2022-12-18T07:19:21;18.38;;;11.85;;
5257;SDS011;2651;51.594;9.928;2022-12-18T07:20:24;15.63;;;11.90;;
5257;SDS011;2651;51.594;9.928;2022-12-18T07:21:26;16.40;;;11.75;;
5257;SDS011;2651;51.594;9.928;2022-12-18T07:22:28;14.95;;;11.57;;
5257;SDS011;2651;51.594;9.928;2022-12-18T07:23:29;16.52;;;11.15;;
5257;SDS011;2651;51.594;9.928;2022-12-18T07:24:33;19.20;;;12.70;;
5257;SDS011;2651;51.594;9.928;2022-12-18T07:25:36;17.17;;;11.25;;
5257;SDS011;2651;51.594;9.928;2022-12-18T07:26:38;21.05;;;13.23;;
5257;SDS011;2651;51.594;9.928;2022-12-18T07:27:40;19.77;;;12.40;;
5257;SDS011;2651;51.594;9.928;2022-12-18T07:28:41;15.43;;;11.00;;
5257;SDS011;2651;51.594;9.928;2022-12-18T07:29:43;16.42;;;12.90;;
5257;SDS011;2651;51.594;9.928;2022-12-18T07:30:45;18.35;;;12.80;;
5257;SDS011;2651;51.594;9.928;2022-12-18T07:31:47;18.25;;;12.25;;